createdAt,value
2022-09-29T00:02:47.574Z,2.50
2022-09-29T00:06:48.815Z,1.87
2022-09-29T00:10:50.046Z,4.20
2022-09-29T00:14:52.623Z,2.40
2022-09-29T00:18:54.230Z,8.47
2022-09-29T00:22:55.459Z,2.67
2022-09-29T00:26:56.967Z,2.30
2022-09-29T00:31:00.674Z,2.17
2022-09-29T00:35:01.983Z,1.70
2022-09-29T00:39:03.278Z,2.40
2022-09-29T00:43:04.516Z,2.90
2022-09-29T00:47:07.378Z,2.17
2022-09-29T00:51:08.951Z,5.67
2022-09-29T00:55:13.635Z,8.17
2022-09-29T00:59:17.463Z,4.07
2022-09-29T01:03:21.074Z,2.40
2022-09-29T01:07:23.391Z,3.60
2022-09-29T01:11:25.103Z,1.93
2022-09-29T01:15:26.350Z,2.77
2022-09-29T01:19:33.050Z,2.60
2022-09-29T01:23:49.567Z,4.53
2022-09-29T01:28:01.586Z,3.07
2022-09-29T01:32:08.564Z,2.27
2022-09-29T01:36:12.577Z,3.07
2022-09-29T01:40:14.923Z,2.30
2022-09-29T01:44:18.953Z,5.30
2022-09-29T01:48:25.295Z,2.40
2022-09-29T01:52:29.074Z,5.60
2022-09-29T01:56:33.376Z,2.80
2022-09-29T02:00:37.654Z,2.80
2022-09-29T02:04:42.383Z,4.03
2022-09-29T02:08:47.514Z,3.50
2022-09-29T02:12:50.343Z,2.97
2022-09-29T02:16:55.356Z,4.47
2022-09-29T02:20:57.934Z,4.20
2022-09-29T02:24:59.515Z,7.43
2022-09-29T02:29:01.035Z,4.60
2022-09-29T02:33:02.403Z,3.90
2022-09-29T02:37:11.359Z,2.83
2022-09-29T02:41:20.817Z,2.47
2022-09-29T02:45:25.288Z,2.97
2022-09-29T02:49:32.235Z,3.80
2022-09-29T02:53:39.605Z,6.03
2022-09-29T02:57:45.150Z,5.27
2022-09-29T03:01:48.263Z,4.20
2022-09-29T03:05:49.698Z,5.37
2022-09-29T03:09:52.288Z,8.30
2022-09-29T03:13:53.523Z,13.27
2022-09-29T03:17:55.143Z,13.40
2022-09-29T03:21:56.355Z,15.03
2022-09-29T03:25:59.239Z,13.13
2022-09-29T03:30:00.491Z,11.13
2022-09-29T03:34:01.987Z,9.97
2022-09-29T03:38:03.378Z,10.77
2022-09-29T03:42:06.075Z,10.50
2022-09-29T03:46:07.349Z,14.33
2022-09-29T03:50:09.023Z,20.10
2022-09-29T03:54:10.680Z,27.57
2022-09-29T03:58:13.315Z,20.13
2022-09-29T04:02:14.606Z,27.80
2022-09-29T04:06:15.891Z,22.30
2022-09-29T04:10:17.239Z,21.40
2022-09-29T04:14:19.795Z,27.27
2022-09-29T04:18:21.183Z,25.90
2022-09-29T04:22:22.419Z,33.40
2022-09-29T04:26:23.764Z,25.37
2022-09-29T04:30:26.328Z,22.77
2022-09-29T04:34:27.725Z,18.83
2022-09-29T04:38:28.992Z,15.33
2022-09-29T04:42:30.469Z,14.93
2022-09-29T04:46:33.304Z,11.50
2022-09-29T04:50:34.788Z,17.40
2022-09-29T04:54:38.081Z,14.97
2022-09-29T04:58:39.509Z,22.80
2022-09-29T05:02:44.724Z,21.40
2022-09-29T05:06:49.118Z,26.40
2022-09-29T05:10:50.384Z,27.70
2022-09-29T05:14:51.673Z,25.93
2022-09-29T05:18:54.470Z,27.40
2022-09-29T05:22:57.612Z,28.47
2022-09-29T05:26:58.846Z,27.03
2022-09-29T05:31:03.354Z,21.77
2022-09-29T05:35:06.585Z,23.17
2022-09-29T05:39:08.084Z,19.00
2022-09-29T05:43:09.312Z,13.07
2022-09-29T05:47:10.531Z,14.20
2022-09-29T05:51:14.136Z,18.50
2022-09-29T05:55:15.890Z,18.97
2022-09-29T05:59:17.153Z,23.60
2022-09-29T06:03:18.422Z,21.53
2022-09-29T06:07:21.009Z,23.93
2022-09-29T06:11:23.772Z,26.47
2022-09-29T06:15:25.251Z,14.87
2022-09-29T06:19:26.793Z,18.03
2022-09-29T06:23:29.554Z,17.17
2022-09-29T06:27:30.788Z,14.30
2022-09-29T06:31:32.103Z,19.33
2022-09-29T06:35:33.554Z,13.53
2022-09-29T06:39:36.276Z,12.17
2022-09-29T06:43:37.680Z,15.57
2022-09-29T06:47:39.046Z,17.20
2022-09-29T06:51:45.915Z,28.27
2022-09-29T06:55:53.192Z,18.50
2022-09-29T06:59:54.582Z,11.57
2022-09-29T07:03:56.276Z,9.50
2022-09-29T07:08:00.814Z,8.50
2022-09-29T07:12:04.023Z,8.23
2022-09-29T07:16:06.038Z,10.50
2022-09-29T07:20:07.753Z,10.17
2022-09-29T07:24:08.997Z,11.23
2022-09-29T07:28:11.567Z,9.17
2022-09-29T07:32:22.761Z,9.13
2022-09-29T07:36:27.787Z,15.30
2022-09-29T07:40:29.193Z,7.47
2022-09-29T07:44:31.930Z,9.87
2022-09-29T07:48:33.358Z,11.33
2022-09-29T07:52:34.718Z,16.03
2022-09-29T07:56:35.950Z,8.17
2022-09-29T08:00:38.665Z,4.70
2022-09-29T08:04:39.917Z,5.13
2022-09-29T08:08:43.381Z,4.53
2022-09-29T08:12:48.775Z,6.00
2022-09-29T08:16:51.407Z,6.33
2022-09-29T08:20:52.734Z,9.00
2022-09-29T08:24:53.968Z,8.20
2022-09-29T08:29:04.417Z,8.83
2022-09-29T08:33:08.834Z,7.67
2022-09-29T08:37:10.194Z,7.97
2022-09-29T08:41:19.296Z,9.57
2022-09-29T08:45:24.838Z,10.80
2022-09-29T08:49:33.329Z,13.40
2022-09-29T08:53:37.601Z,11.33
2022-09-29T08:57:38.991Z,12.93
2022-09-29T09:01:45.869Z,15.20
2022-09-29T09:05:56.864Z,13.40
2022-09-29T09:10:07.063Z,16.20
2022-09-29T09:14:13.905Z,13.23
2022-09-29T09:18:25.175Z,14.20
2022-09-29T09:22:33.180Z,17.80
2022-09-29T09:26:37.746Z,19.03
2022-09-29T09:30:42.116Z,14.40
2022-09-29T09:34:48.021Z,15.43
2022-09-29T09:38:55.090Z,14.43
2022-09-29T09:43:00.003Z,14.83
2022-09-29T09:47:04.871Z,12.27
2022-09-29T09:51:18.449Z,13.63
2022-09-29T09:55:21.853Z,14.70
2022-09-29T09:59:28.485Z,12.67
2022-09-29T10:03:30.246Z,16.17
2022-09-29T10:07:31.496Z,12.47
2022-09-29T10:11:34.184Z,13.20
2022-09-29T10:15:37.815Z,11.97
2022-09-29T10:19:58.311Z,14.33
2022-09-29T10:23:59.597Z,13.97
2022-09-29T10:28:02.426Z,18.17
2022-09-29T10:32:05.320Z,11.93
2022-09-29T10:36:08.396Z,13.83
2022-09-29T10:40:14.501Z,14.77
2022-09-29T10:44:21.365Z,14.77
2022-09-29T10:48:23.001Z,11.87
2022-09-29T10:52:25.424Z,13.27
2022-09-29T10:56:26.733Z,12.17
2022-09-29T11:00:30.707Z,11.60
2022-09-29T11:04:33.184Z,11.33
2022-09-29T11:08:51.841Z,14.60
2022-09-29T11:12:53.311Z,12.43
2022-09-29T11:16:57.789Z,12.63
2022-09-29T11:21:02.841Z,9.60
2022-09-29T11:25:11.836Z,11.80
2022-09-29T11:29:21.198Z,12.03
2022-09-29T11:33:29.206Z,9.77
2022-09-29T11:37:39.016Z,12.40
2022-09-29T11:41:46.560Z,8.40
2022-09-29T11:45:52.659Z,8.47
2022-09-29T11:50:02.837Z,5.80
2022-09-29T11:54:11.644Z,6.23
2022-09-29T11:58:21.350Z,8.17
2022-09-29T12:02:42.894Z,7.03
2022-09-29T12:06:55.839Z,5.30
2022-09-29T12:11:00.028Z,5.30
2022-09-29T12:15:11.617Z,4.13
2022-09-29T12:19:13.580Z,5.30
2022-09-29T12:23:17.837Z,7.77
2022-09-29T12:27:22.498Z,4.33
2022-09-29T12:31:28.442Z,3.43
2022-09-29T12:35:34.625Z,3.60
2022-09-29T12:39:40.142Z,5.43
2022-09-29T12:43:45.320Z,6.40
2022-09-29T12:47:50.076Z,5.73
2022-09-29T12:51:52.276Z,7.90
2022-09-29T12:55:56.638Z,7.33
2022-09-29T12:59:58.834Z,5.40
2022-09-29T13:04:18.981Z,6.13
2022-09-29T13:08:38.792Z,5.97
2022-09-29T13:12:50.098Z,4.70
2022-09-29T13:16:59.382Z,5.60
2022-09-29T13:21:04.870Z,5.73
2022-09-29T13:25:12.622Z,5.70
2022-09-29T13:29:17.057Z,5.17
2022-09-29T13:33:20.334Z,4.37
2022-09-29T13:37:23.486Z,5.00
2022-09-29T13:41:42.802Z,4.80
2022-09-29T13:45:45.547Z,8.47
2022-09-29T13:49:46.907Z,2.73
2022-09-29T13:54:08.108Z,5.40
2022-09-29T13:58:22.331Z,5.67
2022-09-29T14:02:28.316Z,4.50
2022-09-29T14:06:41.482Z,7.00
2022-09-29T14:10:44.729Z,5.30
2022-09-29T14:14:51.383Z,7.97
2022-09-29T14:18:54.250Z,4.97
2022-09-29T14:22:57.002Z,3.10
2022-09-29T14:27:17.059Z,3.27
2022-09-29T14:31:23.946Z,4.67
2022-09-29T14:35:27.852Z,4.37
2022-09-29T14:39:29.811Z,4.43
2022-09-29T14:43:37.062Z,3.90
2022-09-29T14:47:41.834Z,2.80
2022-09-29T14:51:45.139Z,2.63
2022-09-29T14:55:49.307Z,3.90
2022-09-29T14:59:57.851Z,3.70
2022-09-29T15:04:06.111Z,3.57
2022-09-29T15:08:22.409Z,2.80
2022-09-29T15:12:25.346Z,3.43
2022-09-29T15:16:36.239Z,2.87
2022-09-29T15:20:49.962Z,2.27
2022-09-29T15:25:00.574Z,6.27
2022-09-29T15:29:05.073Z,4.47
2022-09-29T15:37:20.513Z,5.50
2022-09-29T15:41:23.599Z,6.03
2022-09-29T15:45:27.653Z,4.73
2022-09-29T15:49:29.404Z,5.53
2022-09-29T15:53:32.137Z,4.00
2022-09-29T15:57:44.120Z,3.60
2022-09-29T16:01:45.434Z,2.63
2022-09-29T16:05:53.939Z,3.33
2022-09-29T16:10:00.551Z,4.17
2022-09-29T16:14:02.606Z,5.60
2022-09-29T16:18:08.219Z,2.20
2022-09-29T16:22:17.363Z,4.50
2022-09-29T16:26:32.964Z,4.13
2022-09-29T16:30:34.899Z,6.50
2022-09-29T16:34:36.159Z,4.07
2022-09-29T16:38:39.039Z,5.93
2022-09-29T16:42:41.672Z,4.53
2022-09-29T16:46:48.349Z,2.97
2022-09-29T16:50:52.611Z,2.27
2022-09-29T16:54:55.379Z,2.23
2022-09-29T16:59:08.955Z,5.80
2022-09-29T17:03:10.314Z,2.37
2022-09-29T17:07:13.511Z,3.03
2022-09-29T17:11:14.714Z,2.67
2022-09-29T17:15:17.871Z,1.77
2022-09-29T17:19:19.535Z,3.20
2022-09-29T17:23:20.819Z,2.63
2022-09-29T17:27:22.619Z,4.87
2022-09-29T17:31:25.253Z,4.03
2022-09-29T17:35:28.245Z,4.77
2022-09-29T17:39:29.553Z,3.60
2022-09-29T17:43:31.316Z,2.67
2022-09-29T17:47:36.382Z,4.43
2022-09-29T17:51:38.889Z,3.10
2022-09-29T17:55:40.631Z,5.33
2022-09-29T17:59:42.030Z,3.33
2022-09-29T18:03:44.589Z,4.07
2022-09-29T18:07:46.598Z,7.53
2022-09-29T18:11:47.842Z,3.67
2022-09-29T18:15:49.355Z,4.00
2022-09-29T18:19:51.953Z,5.10
2022-09-29T18:23:53.166Z,7.20
2022-09-29T18:27:54.709Z,5.47
2022-09-29T18:31:55.950Z,6.97
2022-09-29T18:35:58.537Z,4.83
2022-09-29T18:39:59.919Z,5.00
2022-09-29T18:44:01.573Z,2.00
2022-09-29T18:48:04.137Z,2.73
2022-09-29T18:52:06.681Z,4.17
2022-09-29T18:56:11.809Z,6.03
2022-09-29T19:00:13.916Z,3.37
2022-09-29T19:04:15.161Z,2.83
2022-09-29T19:08:18.072Z,1.83
2022-09-29T19:12:19.309Z,1.87
2022-09-29T19:16:20.946Z,3.83
2022-09-29T19:20:22.933Z,2.20
2022-09-29T19:24:25.541Z,2.87
2022-09-29T19:28:27.577Z,4.27
2022-09-29T19:32:28.929Z,2.73
2022-09-29T19:36:30.299Z,3.33
2022-09-29T19:40:33.662Z,2.03
2022-09-29T19:44:36.153Z,1.70
2022-09-29T19:48:37.601Z,3.03
2022-09-29T19:52:38.846Z,3.63
2022-09-29T19:56:42.923Z,2.43
2022-09-29T20:00:44.452Z,4.53
2022-09-29T20:04:45.982Z,2.57
2022-09-29T20:08:47.211Z,2.60
2022-09-29T20:12:49.943Z,4.07
2022-09-29T20:16:52.476Z,2.47
2022-09-29T20:20:53.735Z,2.57
2022-09-29T20:24:55.094Z,2.73
2022-09-29T20:28:57.785Z,4.07
2022-09-29T20:32:59.066Z,2.30
2022-09-29T20:37:00.294Z,2.93
2022-09-29T20:41:02.107Z,3.60
2022-09-29T20:45:05.390Z,2.20
2022-09-29T20:49:06.618Z,2.70
2022-09-29T20:53:07.966Z,2.93
2022-09-29T20:57:09.303Z,3.10
2022-09-29T21:01:13.375Z,2.37
2022-09-29T21:05:14.733Z,2.50
2022-09-29T21:09:17.057Z,4.00
2022-09-29T21:13:18.474Z,4.13
2022-09-29T21:17:21.237Z,5.07
2022-09-29T21:21:22.499Z,2.57
2022-09-29T21:25:23.760Z,4.50
2022-09-29T21:29:25.124Z,2.87
2022-09-29T21:33:27.855Z,4.40
2022-09-29T21:37:29.290Z,4.90
2022-09-29T21:41:33.486Z,5.47
2022-09-29T21:45:34.846Z,5.20
2022-09-29T21:49:37.546Z,3.17
2022-09-29T21:53:39.158Z,3.13
2022-09-29T21:57:40.527Z,7.53
2022-09-29T22:01:42.194Z,3.30
2022-09-29T22:05:45.075Z,4.27
2022-09-29T22:09:46.444Z,6.87
2022-09-29T22:13:49.154Z,9.80
2022-09-29T22:17:50.513Z,8.60
2022-09-29T22:21:53.955Z,3.60
2022-09-29T22:25:55.511Z,4.27
2022-09-29T22:29:56.863Z,4.23
2022-09-29T22:34:00.179Z,7.87
2022-09-29T22:38:03.490Z,4.67
2022-09-29T22:42:04.734Z,4.73
2022-09-29T22:46:07.423Z,4.07
2022-09-29T22:50:08.835Z,4.70
2022-09-29T22:54:11.570Z,3.67
2022-09-29T22:58:13.055Z,3.70
2022-09-29T23:02:14.359Z,4.37
2022-09-29T23:06:15.929Z,4.23
2022-09-29T23:10:19.219Z,5.83
2022-09-29T23:14:20.631Z,8.03
2022-09-29T23:18:21.974Z,5.70
2022-09-29T23:22:23.570Z,5.63
2022-09-29T23:26:27.267Z,10.30
2022-09-29T23:30:28.631Z,5.60
2022-09-29T23:34:29.856Z,6.43
2022-09-29T23:38:31.203Z,7.03
2022-09-29T23:42:33.926Z,4.83
2022-09-29T23:46:36.285Z,9.63
2022-09-29T23:50:37.666Z,4.60
2022-09-29T23:54:38.894Z,5.23
2022-09-29T23:58:41.604Z,9.83
